createdAt,value
2023-04-19T00:00:15.956Z,9.33
2023-04-19T00:01:11.518Z,9.33
2023-04-19T00:02:07.184Z,9.24
2023-04-19T00:03:02.853Z,9.30
2023-04-19T00:03:58.434Z,9.29
2023-04-19T00:04:53.878Z,9.24
2023-04-19T00:05:49.306Z,9.29
2023-04-19T00:06:44.904Z,9.29
2023-04-19T00:07:40.478Z,9.27
2023-04-19T00:08:36.011Z,9.19
2023-04-19T00:09:31.558Z,9.15
2023-04-19T00:10:27.114Z,9.27
2023-04-19T00:11:23.233Z,9.16
2023-04-19T00:12:18.797Z,9.29
2023-04-19T00:13:14.387Z,9.23
2023-04-19T00:14:09.937Z,9.22
2023-04-19T00:15:05.509Z,9.27
2023-04-19T00:16:01.057Z,9.22
2023-04-19T00:16:56.651Z,9.22
2023-04-19T00:17:52.199Z,9.24
2023-04-19T00:18:47.721Z,9.23
2023-04-19T00:19:43.281Z,9.19
2023-04-19T00:20:38.903Z,9.26
2023-04-19T00:21:34.493Z,9.27
2023-04-19T00:22:30.564Z,9.22
2023-04-19T00:23:26.111Z,9.19
2023-04-19T00:24:21.664Z,9.22
2023-04-19T00:25:17.230Z,9.08
2023-04-19T00:26:12.783Z,9.14
2023-04-19T00:27:08.800Z,9.15
2023-04-19T00:28:04.330Z,9.09
2023-04-19T00:28:59.873Z,9.04
2023-04-19T00:29:55.893Z,9.06
2023-04-19T00:30:51.509Z,8.99
2023-04-19T00:31:47.017Z,8.96
2023-04-19T00:32:42.663Z,8.98
2023-04-19T00:33:38.218Z,8.96
2023-04-19T00:34:33.772Z,8.93
2023-04-19T00:35:29.307Z,8.98
2023-04-19T00:36:24.896Z,8.98
2023-04-19T00:37:20.428Z,8.96
2023-04-19T00:38:16.002Z,8.99
2023-04-19T00:39:22.833Z,8.98
2023-04-19T00:40:18.397Z,9.03
2023-04-19T00:41:13.982Z,8.90
2023-04-19T00:42:09.988Z,8.99
2023-04-19T00:43:05.569Z,8.98
2023-04-19T00:44:01.108Z,8.88
2023-04-19T00:44:57.135Z,8.89
2023-04-19T00:45:52.814Z,8.92
2023-04-19T00:46:48.234Z,8.95
2023-04-19T00:47:43.863Z,8.90
2023-04-19T00:48:39.362Z,8.93
2023-04-19T00:49:34.914Z,8.92
2023-04-19T00:50:30.474Z,8.99
2023-04-19T00:51:26.502Z,8.86
2023-04-19T00:52:22.025Z,8.93
2023-04-19T00:53:18.076Z,8.86
2023-04-19T00:54:13.846Z,8.96
2023-04-19T00:55:09.174Z,8.88
2023-04-19T00:56:04.752Z,8.95
2023-04-19T00:57:00.280Z,8.95
2023-04-19T00:57:55.840Z,8.90
2023-04-19T00:58:51.404Z,8.95
2023-04-19T00:59:46.945Z,8.96
2023-04-19T01:00:42.492Z,8.95
2023-04-19T01:01:38.176Z,8.83
2023-04-19T01:02:33.725Z,8.86
2023-04-19T01:03:29.439Z,8.80
2023-04-19T01:04:24.838Z,8.81
2023-04-19T01:05:20.286Z,8.88
2023-04-19T01:06:15.897Z,8.86
2023-04-19T01:07:11.416Z,8.83
2023-04-19T01:08:19.238Z,8.81
2023-04-19T01:09:14.778Z,8.70
2023-04-19T01:10:10.326Z,8.78
2023-04-19T01:11:05.943Z,8.74
2023-04-19T01:12:01.554Z,8.83
2023-04-19T01:12:57.100Z,8.80
2023-04-19T01:13:52.665Z,8.83
2023-04-19T01:14:48.210Z,8.81
2023-04-19T01:15:43.772Z,8.78
2023-04-19T01:16:39.406Z,8.81
2023-04-19T01:17:34.919Z,8.72
2023-04-19T01:18:30.909Z,8.81
2023-04-19T01:19:26.461Z,8.78
2023-04-19T01:20:22.017Z,8.72
2023-04-19T01:21:17.567Z,8.68
2023-04-19T01:22:13.630Z,8.72
2023-04-19T01:23:09.152Z,8.72
2023-04-19T01:24:04.724Z,8.77
2023-04-19T01:25:00.258Z,8.74
2023-04-19T01:25:56.804Z,8.74
2023-04-19T01:26:52.364Z,8.75
2023-04-19T01:27:47.924Z,8.75
2023-04-19T01:28:43.472Z,8.60
2023-04-19T01:29:39.012Z,8.71
2023-04-19T01:30:34.578Z,8.67
2023-04-19T01:31:30.234Z,8.57
2023-04-19T01:32:25.694Z,8.75
2023-04-19T01:33:21.241Z,8.71
2023-04-19T01:34:16.864Z,8.63
2023-04-19T01:35:12.347Z,8.74
2023-04-19T01:36:07.889Z,8.68
2023-04-19T01:37:03.456Z,8.71
2023-04-19T01:37:59.039Z,8.67
2023-04-19T01:38:54.569Z,8.65
2023-04-19T01:39:50.110Z,8.65
2023-04-19T01:40:45.781Z,8.63
2023-04-19T01:41:41.250Z,8.55
2023-04-19T01:42:36.815Z,8.55
2023-04-19T01:43:32.399Z,8.52
2023-04-19T01:44:27.906Z,8.56
2023-04-19T01:45:23.463Z,8.57
2023-04-19T01:46:19.088Z,8.59
2023-04-19T01:47:14.594Z,8.50
2023-04-19T01:48:10.200Z,8.53
2023-04-19T01:49:06.171Z,8.60
2023-04-19T01:50:01.692Z,8.50
2023-04-19T01:50:57.231Z,8.59
2023-04-19T01:51:52.791Z,8.57
2023-04-19T01:52:48.798Z,8.53
2023-04-19T01:53:44.852Z,8.52
2023-04-19T01:54:40.447Z,8.50
2023-04-19T01:55:35.987Z,8.53
2023-04-19T01:56:31.545Z,8.52
2023-04-19T01:57:27.602Z,8.46
2023-04-19T01:58:23.167Z,8.38
2023-04-19T01:59:19.193Z,8.35
2023-04-19T02:00:15.239Z,8.39
2023-04-19T02:01:10.863Z,8.35
2023-04-19T02:02:06.519Z,8.35
2023-04-19T02:03:02.624Z,8.35
2023-04-19T02:03:58.548Z,8.34
2023-04-19T02:04:54.020Z,8.32
2023-04-19T02:05:49.562Z,8.31
2023-04-19T02:06:45.118Z,8.29
2023-04-19T02:07:40.680Z,8.26
2023-04-19T02:08:36.232Z,8.29
2023-04-19T02:09:31.799Z,8.28
2023-04-19T02:10:27.359Z,8.19
2023-04-19T02:11:23.404Z,8.26
2023-04-19T02:12:18.964Z,8.23
2023-04-19T02:13:14.507Z,8.20
2023-04-19T02:14:10.109Z,8.20
2023-04-19T02:15:05.683Z,8.19
2023-04-19T02:16:01.749Z,8.17
2023-04-19T02:16:57.907Z,8.19
2023-04-19T02:17:53.384Z,8.16
2023-04-19T02:18:48.868Z,8.17
2023-04-19T02:19:45.441Z,8.17
2023-04-19T02:20:40.983Z,8.13
2023-04-19T02:21:36.514Z,8.14
2023-04-19T02:22:32.065Z,8.16
2023-04-19T02:23:27.607Z,8.10
2023-04-19T02:24:23.186Z,8.10
2023-04-19T02:25:19.243Z,8.04
2023-04-19T02:26:14.774Z,8.09
2023-04-19T02:27:10.813Z,7.96
2023-04-19T02:28:06.364Z,8.05
2023-04-19T02:29:01.927Z,8.05
2023-04-19T02:29:57.471Z,7.88
2023-04-19T02:30:53.077Z,7.94
2023-04-19T02:31:48.688Z,7.87
2023-04-19T02:32:44.200Z,7.92
2023-04-19T02:33:50.970Z,7.86
2023-04-19T02:34:46.516Z,7.84
2023-04-19T02:35:42.070Z,7.84
2023-04-19T02:36:39.125Z,7.87
2023-04-19T02:37:34.712Z,7.88
2023-04-19T02:38:41.016Z,7.86
2023-04-19T02:39:39.436Z,7.91
2023-04-19T02:40:36.534Z,7.87
2023-04-19T02:41:35.176Z,7.84
2023-04-19T02:42:32.128Z,7.84
2023-04-19T02:43:30.678Z,7.84
2023-04-19T02:44:29.291Z,7.91
2023-04-19T02:45:28.630Z,7.83
2023-04-19T02:46:27.348Z,7.81
2023-04-19T02:47:25.737Z,7.80
2023-04-19T02:48:22.812Z,7.80
2023-04-19T02:49:22.484Z,7.81
2023-04-19T02:50:19.458Z,7.78
2023-04-19T02:51:18.107Z,7.76
2023-04-19T02:52:16.595Z,7.78
2023-04-19T02:53:15.055Z,7.77
2023-04-19T02:54:13.850Z,7.78
2023-04-19T02:55:12.179Z,7.74
2023-04-19T02:56:09.292Z,7.74
2023-04-19T02:57:06.280Z,7.74
2023-04-19T02:58:04.822Z,7.77
2023-04-19T02:59:01.910Z,7.71
2023-04-19T03:00:00.493Z,7.69
2023-04-19T03:00:57.610Z,7.71
2023-04-19T03:01:54.716Z,7.73
2023-04-19T03:02:53.362Z,7.62
2023-04-19T03:03:50.370Z,7.58
2023-04-19T03:04:48.758Z,7.58
2023-04-19T03:05:47.350Z,7.58
2023-04-19T03:06:43.542Z,7.61
2023-04-19T03:07:44.319Z,7.54
2023-04-19T03:08:40.467Z,7.58
2023-04-19T03:09:37.488Z,7.58
2023-04-19T03:10:36.128Z,7.66
2023-04-19T03:11:34.606Z,7.50
2023-04-19T03:12:33.096Z,7.52
2023-04-19T03:13:31.627Z,7.55
2023-04-19T03:14:30.311Z,7.57
2023-04-19T03:15:27.230Z,7.57
2023-04-19T03:16:25.800Z,7.55
2023-04-19T03:17:24.510Z,7.71
2023-04-19T03:18:21.492Z,7.58
2023-04-19T03:19:19.968Z,7.69
2023-04-19T03:20:17.023Z,7.66
2023-04-19T03:21:15.570Z,7.50
2023-04-19T03:22:14.178Z,7.58
2023-04-19T03:23:12.794Z,7.52
2023-04-19T03:24:11.337Z,7.46
2023-04-19T03:25:08.345Z,7.55
2023-04-19T03:26:05.334Z,7.55
2023-04-19T03:27:03.947Z,7.43
2023-04-19T03:28:02.497Z,7.54
2023-04-19T03:29:01.030Z,7.46
2023-04-19T03:29:59.509Z,7.49
2023-04-19T03:30:56.602Z,7.44
2023-04-19T03:31:55.233Z,7.44
2023-04-19T03:32:52.335Z,7.36
2023-04-19T03:33:50.833Z,7.40
2023-04-19T03:34:49.331Z,7.42
2023-04-19T03:35:46.397Z,7.43
2023-04-19T03:36:43.435Z,7.39
2023-04-19T03:37:40.515Z,7.42
2023-04-19T03:38:39.222Z,7.34
2023-04-19T03:39:36.259Z,7.36
2023-04-19T03:40:34.903Z,7.26
2023-04-19T03:41:33.341Z,7.36
2023-04-19T03:42:31.941Z,7.28
2023-04-19T03:43:30.479Z,7.36
2023-04-19T03:44:27.508Z,7.36
2023-04-19T03:45:24.505Z,7.26
2023-04-19T03:46:23.145Z,7.26
2023-04-19T03:47:20.232Z,7.22
2023-04-19T03:48:17.193Z,7.22
2023-04-19T03:49:15.799Z,7.22
2023-04-19T03:50:12.970Z,7.21
2023-04-19T03:51:08.812Z,7.21
2023-04-19T03:52:07.422Z,7.19
2023-04-19T03:53:04.436Z,7.21
2023-04-19T03:54:03.014Z,7.19
2023-04-19T03:54:59.979Z,7.22
2023-04-19T03:55:57.037Z,7.24
2023-04-19T03:56:55.601Z,7.13
2023-04-19T03:57:52.660Z,7.13
2023-04-19T03:58:51.173Z,7.18
2023-04-19T03:59:48.204Z,7.15
2023-04-19T04:00:44.334Z,7.11
2023-04-19T04:01:43.057Z,7.11
2023-04-19T04:02:39.100Z,7.15
2023-04-19T04:03:36.077Z,7.16
2023-04-19T04:04:34.758Z,7.11
2023-04-19T04:05:33.142Z,7.08
2023-04-19T04:06:31.562Z,7.10
2023-04-19T04:07:30.160Z,7.11
2023-04-19T04:08:28.688Z,7.13
2023-04-19T04:09:27.246Z,7.03
2023-04-19T04:10:24.237Z,7.03
2023-04-19T04:11:21.299Z,7.01
2023-04-19T04:12:17.336Z,7.03
2023-04-19T04:13:15.924Z,7.00
2023-04-19T04:14:14.679Z,7.01
2023-04-19T04:15:11.435Z,6.96
2023-04-19T04:16:10.115Z,7.00
2023-04-19T04:17:06.038Z,7.03
2023-04-19T04:18:03.150Z,6.93
2023-04-19T04:19:00.127Z,7.03
2023-04-19T04:19:57.185Z,7.00
2023-04-19T04:20:55.735Z,7.01
2023-04-19T04:21:52.715Z,7.00
2023-04-19T04:22:49.784Z,6.99
2023-04-19T04:23:45.801Z,6.97
2023-04-19T04:24:42.876Z,6.91
2023-04-19T04:25:46.151Z,6.93
2023-04-19T04:26:41.693Z,6.88
2023-04-19T04:27:37.251Z,6.96
2023-04-19T04:28:32.804Z,6.97
2023-04-19T04:29:28.348Z,6.97
2023-04-19T04:30:25.874Z,6.89
2023-04-19T04:31:19.484Z,6.89
2023-04-19T04:32:14.997Z,6.96
2023-04-19T04:33:11.572Z,6.96
2023-04-19T04:34:07.116Z,6.97
2023-04-19T04:35:02.668Z,6.86
2023-04-19T04:35:58.242Z,6.89
2023-04-19T04:36:54.806Z,6.85
2023-04-19T04:37:50.360Z,6.85
2023-04-19T04:38:45.912Z,6.75
2023-04-19T04:39:41.945Z,6.81
2023-04-19T04:40:37.513Z,6.93
2023-04-19T04:41:33.545Z,6.83
2023-04-19T04:42:29.580Z,6.82
2023-04-19T04:43:25.142Z,6.82
2023-04-19T04:44:20.732Z,6.83
2023-04-19T04:45:16.712Z,6.81
2023-04-19T04:46:12.769Z,6.86
2023-04-19T04:47:08.302Z,6.88
2023-04-19T04:48:03.927Z,6.81
2023-04-19T04:48:59.430Z,6.82
2023-04-19T04:49:55.468Z,6.82
2023-04-19T04:50:51.006Z,6.74
2023-04-19T04:51:46.558Z,6.75
2023-04-19T04:52:42.581Z,6.74
2023-04-19T04:53:38.626Z,6.74
2023-04-19T04:54:34.634Z,6.70
2023-04-19T04:55:30.193Z,6.78
2023-04-19T04:56:25.782Z,6.74
2023-04-19T04:57:21.307Z,6.78
2023-04-19T04:58:18.558Z,6.75
2023-04-19T04:59:12.865Z,6.75
2023-04-19T05:00:09.471Z,6.78
2023-04-19T05:01:05.091Z,6.74
2023-04-19T05:02:01.074Z,6.81
2023-04-19T05:02:56.748Z,6.79
2023-04-19T05:03:52.256Z,6.71
2023-04-19T05:04:47.772Z,6.70
2023-04-19T05:05:45.046Z,6.81
2023-04-19T05:06:51.035Z,6.74
2023-04-19T05:07:46.596Z,6.93
2023-04-19T05:08:42.621Z,6.83
2023-04-19T05:09:38.669Z,6.89
2023-04-19T05:10:34.214Z,6.88
2023-04-19T05:11:30.246Z,6.89
2023-04-19T05:12:25.816Z,6.85
2023-04-19T05:13:21.414Z,6.83
2023-04-19T05:14:17.675Z,6.86
2023-04-19T05:15:13.486Z,6.82
2023-04-19T05:16:09.057Z,6.82
2023-04-19T05:17:06.985Z,6.75
2023-04-19T05:18:00.839Z,6.83
2023-04-19T05:18:56.862Z,6.89
2023-04-19T05:19:52.440Z,6.97
2023-04-19T05:20:47.978Z,6.88
2023-04-19T05:21:43.549Z,6.93
2023-04-19T05:22:39.639Z,6.92
2023-04-19T05:23:50.304Z,6.93
2023-04-19T05:24:46.394Z,6.86
2023-04-19T05:25:42.446Z,6.93
2023-04-19T05:26:38.503Z,6.96
2023-04-19T05:27:34.527Z,6.92
2023-04-19T05:28:30.104Z,6.88
2023-04-19T05:29:27.150Z,6.93
2023-04-19T05:30:23.203Z,7.03
2023-04-19T05:31:19.245Z,7.03
2023-04-19T05:32:15.302Z,7.03
2023-04-19T05:33:10.846Z,7.01
2023-04-19T05:34:07.889Z,7.06
2023-04-19T05:35:03.669Z,7.10
2023-04-19T05:35:59.725Z,7.01
2023-04-19T05:36:55.326Z,7.08
2023-04-19T05:37:51.362Z,7.16
2023-04-19T05:38:47.385Z,7.08
2023-04-19T05:39:32.551Z,7.08
2023-04-19T05:40:28.569Z,7.16
2023-04-19T05:41:24.543Z,7.13
2023-04-19T05:42:19.929Z,7.13
2023-04-19T05:43:15.921Z,7.08
2023-04-19T05:44:11.519Z,7.19
2023-04-19T05:45:07.542Z,7.15
2023-04-19T05:46:03.173Z,7.21
2023-04-19T05:46:59.288Z,7.15
2023-04-19T05:47:54.866Z,7.19
2023-04-19T05:48:50.878Z,7.22
2023-04-19T05:49:46.908Z,7.21
2023-04-19T05:50:42.463Z,7.33
2023-04-19T05:51:38.063Z,7.29
2023-04-19T05:52:34.076Z,7.36
2023-04-19T05:53:29.629Z,7.31
2023-04-19T05:54:25.230Z,7.28
2023-04-19T05:55:21.311Z,7.31
2023-04-19T05:56:16.857Z,7.40
2023-04-19T05:57:12.411Z,7.43
2023-04-19T05:58:07.959Z,7.43
2023-04-19T05:59:03.983Z,7.37
2023-04-19T06:00:55.675Z,7.52
2023-04-19T06:01:51.270Z,7.54
2023-04-19T06:02:46.861Z,7.55
2023-04-19T06:03:42.548Z,7.58
2023-04-19T06:04:38.218Z,7.60
2023-04-19T06:05:33.389Z,7.71
2023-04-19T06:06:29.065Z,7.78
2023-04-19T06:07:32.091Z,7.83
2023-04-19T06:08:20.033Z,7.84
2023-04-19T06:09:15.584Z,7.91
2023-04-19T06:10:11.127Z,7.86
2023-04-19T06:11:15.715Z,7.96
2023-04-19T06:12:02.257Z,7.94
2023-04-19T06:12:57.830Z,8.06
2023-04-19T06:13:53.400Z,8.01
2023-04-19T06:14:48.963Z,8.06
2023-04-19T06:15:44.540Z,8.17
2023-04-19T06:16:40.117Z,8.28
2023-04-19T06:17:35.730Z,8.35
2023-04-19T06:18:31.194Z,8.42
2023-04-19T06:19:27.211Z,8.52
2023-04-19T06:20:22.768Z,8.56
2023-04-19T06:21:19.332Z,8.65
2023-04-19T06:22:14.939Z,8.65
2023-04-19T06:23:10.969Z,8.68
2023-04-19T06:24:06.509Z,8.67
2023-04-19T06:25:02.538Z,8.74
2023-04-19T06:25:58.097Z,8.86
2023-04-19T06:26:53.639Z,8.86
2023-04-19T06:27:49.731Z,8.96
2023-04-19T06:28:45.335Z,9.04
2023-04-19T06:29:40.883Z,8.98
2023-04-19T06:30:36.456Z,9.14
2023-04-19T06:31:43.785Z,9.22
2023-04-19T06:32:39.963Z,9.33
2023-04-19T06:33:35.843Z,9.44
2023-04-19T06:34:31.847Z,9.44
2023-04-19T06:35:27.390Z,9.57
2023-04-19T06:36:23.401Z,9.50
2023-04-19T06:37:08.584Z,9.60
2023-04-19T06:38:04.130Z,9.55
2023-04-19T06:39:00.162Z,9.67
2023-04-19T06:39:55.717Z,9.72
2023-04-19T06:40:51.759Z,9.66
2023-04-19T06:41:47.314Z,9.78
2023-04-19T06:42:43.330Z,9.87
2023-04-19T06:43:39.340Z,10.01
2023-04-19T06:44:34.950Z,10.06
2023-04-19T06:45:30.503Z,10.17
2023-04-19T06:46:26.580Z,10.28
2023-04-19T06:47:22.918Z,10.36
2023-04-19T06:48:18.677Z,10.54
2023-04-19T06:49:14.595Z,10.60
2023-04-19T06:50:10.153Z,10.64
2023-04-19T06:51:05.705Z,10.64
2023-04-19T06:52:01.310Z,10.72
2023-04-19T06:52:57.333Z,10.85
2023-04-19T06:53:52.894Z,10.85
2023-04-19T06:54:48.935Z,10.87
2023-04-19T06:55:45.515Z,11.09
2023-04-19T06:56:41.660Z,10.97
2023-04-19T06:57:37.247Z,11.05
2023-04-19T06:58:34.645Z,11.03
2023-04-19T06:59:28.815Z,11.08
2023-04-19T07:00:24.370Z,11.12
2023-04-19T07:01:20.512Z,11.30
2023-04-19T07:02:16.054Z,11.34
2023-04-19T07:03:12.200Z,11.40
2023-04-19T07:04:07.930Z,11.51
2023-04-19T07:05:03.764Z,11.59
2023-04-19T07:05:59.831Z,11.58
2023-04-19T07:06:55.817Z,11.67
2023-04-19T07:07:51.925Z,11.77
2023-04-19T07:08:50.201Z,11.84
2023-04-19T07:09:43.979Z,11.96
2023-04-19T07:10:40.049Z,11.99
2023-04-19T07:11:37.100Z,12.14
2023-04-19T07:12:33.118Z,12.15
2023-04-19T07:13:28.680Z,12.29
2023-04-19T07:14:24.700Z,12.47
2023-04-19T07:15:20.732Z,12.29
2023-04-19T07:16:16.630Z,12.40
2023-04-19T07:17:12.308Z,12.30
2023-04-19T07:18:08.369Z,12.43
2023-04-19T07:19:04.397Z,12.41
2023-04-19T07:20:00.454Z,12.29
2023-04-19T07:20:56.466Z,12.30
2023-04-19T07:21:52.499Z,12.35
2023-04-19T07:22:48.572Z,12.23
2023-04-19T07:23:44.603Z,12.28
2023-04-19T07:24:40.633Z,12.30
2023-04-19T07:25:36.179Z,12.30
2023-04-19T07:26:32.207Z,12.38
2023-04-19T07:27:28.787Z,12.36
2023-04-19T07:28:36.104Z,12.47
2023-04-19T07:29:32.161Z,12.36
2023-04-19T07:30:28.181Z,12.43
2023-04-19T07:31:24.227Z,12.44
2023-04-19T07:32:19.916Z,12.61
2023-04-19T07:33:15.908Z,12.58
2023-04-19T07:34:12.731Z,12.51
2023-04-19T07:35:08.985Z,12.62
2023-04-19T07:36:05.019Z,12.53
2023-04-19T07:37:03.409Z,12.51
2023-04-19T07:38:00.608Z,12.55
2023-04-19T07:38:57.624Z,12.53
2023-04-19T07:39:53.850Z,12.58
2023-04-19T07:40:50.002Z,12.69
2023-04-19T07:41:46.982Z,12.58
2023-04-19T07:42:44.023Z,12.55
2023-04-19T07:43:41.181Z,12.58
2023-04-19T07:44:37.148Z,12.73
2023-04-19T07:45:33.262Z,12.76
2023-04-19T07:46:29.439Z,12.72
2023-04-19T07:47:27.772Z,12.72
2023-04-19T07:48:24.822Z,12.77
2023-04-19T07:49:20.891Z,12.77
2023-04-19T07:50:18.088Z,12.68
2023-04-19T07:51:16.404Z,12.76
2023-04-19T07:52:12.283Z,12.73
2023-04-19T07:53:08.292Z,12.81
2023-04-19T07:54:04.561Z,12.81
2023-04-19T07:55:01.472Z,12.80
2023-04-19T07:55:57.944Z,12.90
2023-04-19T07:56:53.964Z,12.87
2023-04-19T07:57:52.600Z,12.86
2023-04-19T07:58:56.531Z,12.98
2023-04-19T07:59:44.350Z,12.95
2023-04-19T08:00:40.774Z,12.91
2023-04-19T08:01:36.964Z,13.01
2023-04-19T08:02:32.946Z,12.95
2023-04-19T08:03:29.058Z,13.01
2023-04-19T08:04:25.633Z,13.06
2023-04-19T08:05:21.631Z,13.08
2023-04-19T08:06:17.359Z,13.16
2023-04-19T08:07:13.298Z,13.19
2023-04-19T08:08:09.488Z,13.23
2023-04-19T08:09:05.556Z,13.17
2023-04-19T08:10:01.896Z,13.24
2023-04-19T08:10:58.456Z,13.20
2023-04-19T08:11:54.069Z,13.40
2023-04-19T08:13:04.393Z,13.40
2023-04-19T08:14:02.859Z,13.36
2023-04-19T08:14:56.185Z,13.47
2023-04-19T08:16:18.067Z,13.46
2023-04-19T08:17:40.108Z,13.58
2023-04-19T08:18:28.870Z,13.63
2023-04-19T08:19:24.859Z,13.63
2023-04-19T08:20:20.957Z,13.65
2023-04-19T08:21:17.101Z,13.75
2023-04-19T08:22:13.130Z,13.79
2023-04-19T08:23:20.475Z,13.97
2023-04-19T08:24:05.201Z,14.01
2023-04-19T08:25:01.204Z,14.12
2023-04-19T08:25:57.432Z,14.11
2023-04-19T08:26:53.513Z,14.19
2023-04-19T08:27:49.608Z,14.44
2023-04-19T08:28:45.608Z,14.59
2023-04-19T08:29:41.699Z,14.70
2023-04-19T08:30:38.781Z,14.92
2023-04-19T08:31:34.888Z,15.08
2023-04-19T08:32:30.970Z,15.12
2023-04-19T08:33:26.907Z,15.30
2023-04-19T08:34:23.250Z,15.41
2023-04-19T08:35:20.245Z,15.60
2023-04-19T08:36:22.168Z,15.93
2023-04-19T08:37:13.345Z,15.93
2023-04-19T08:38:09.545Z,15.93
2023-04-19T08:39:08.461Z,15.96
2023-04-19T08:40:12.866Z,16.17
2023-04-19T08:41:09.973Z,16.32
2023-04-19T08:42:10.514Z,16.33
2023-04-19T08:43:02.269Z,16.47
2023-04-19T08:43:58.047Z,16.37
2023-04-19T08:45:13.755Z,16.28
2023-04-19T08:45:51.340Z,16.33
2023-04-19T08:46:47.363Z,16.40
2023-04-19T08:48:00.734Z,16.49
2023-04-19T08:48:51.887Z,16.54
2023-04-19T08:49:59.532Z,16.42
2023-04-19T08:51:03.543Z,16.51
2023-04-19T08:51:43.205Z,16.47
2023-04-19T08:52:51.781Z,16.65
2023-04-19T08:53:35.244Z,16.62
2023-04-19T08:54:31.459Z,16.70
2023-04-19T08:55:27.540Z,16.73
2023-04-19T08:56:34.890Z,16.73
2023-04-19T08:57:19.661Z,16.74
2023-04-19T08:58:28.617Z,16.70
2023-04-19T08:59:19.823Z,16.84
2023-04-19T09:00:08.465Z,17.01
2023-04-19T09:01:05.359Z,17.14
2023-04-19T09:02:02.662Z,17.27
2023-04-19T09:03:01.261Z,17.19
2023-04-19T09:04:07.465Z,17.35
2023-04-19T09:05:04.483Z,17.54
2023-04-19T09:06:00.641Z,17.69
2023-04-19T09:06:56.598Z,17.78
2023-04-19T09:07:52.941Z,17.93
2023-04-19T09:08:48.873Z,18.15
2023-04-19T09:09:59.732Z,18.26
2023-04-19T09:10:40.963Z,18.41
2023-04-19T09:11:37.023Z,18.41
2023-04-19T09:12:33.088Z,18.41
2023-04-19T09:13:29.137Z,18.23
2023-04-19T09:14:25.248Z,18.34
2023-04-19T09:15:21.294Z,18.42
2023-04-19T09:16:17.521Z,18.31
2023-04-19T09:17:13.491Z,18.28
2023-04-19T09:18:09.896Z,18.33
2023-04-19T09:19:19.461Z,18.36
2023-04-19T09:20:04.251Z,18.52
2023-04-19T09:21:00.277Z,18.63
2023-04-19T09:21:56.541Z,18.76
2023-04-19T09:22:52.416Z,19.05
2023-04-19T09:23:48.554Z,19.19
2023-04-19T09:26:05.922Z,19.64
2023-04-19T09:26:36.758Z,19.68
2023-04-19T09:27:32.823Z,19.81
2023-04-19T09:28:29.881Z,20.04
2023-04-19T09:29:26.829Z,20.22
2023-04-19T09:30:32.492Z,20.44
2023-04-19T09:31:39.106Z,20.49
2023-04-19T09:32:16.270Z,20.61
2023-04-19T09:33:12.403Z,20.60
2023-04-19T09:34:09.434Z,20.68
2023-04-19T09:35:06.258Z,20.53
2023-04-19T09:36:02.517Z,20.61
2023-04-19T09:37:11.083Z,20.60
2023-04-19T09:38:04.842Z,20.48
2023-04-19T09:38:51.777Z,20.49
2023-04-19T09:39:47.701Z,20.44
2023-04-19T09:40:43.864Z,20.44
2023-04-19T09:41:41.508Z,20.17
2023-04-19T09:42:55.441Z,20.08
2023-04-19T09:45:29.744Z,20.07
2023-04-19T09:46:23.501Z,20.02
2023-04-19T09:47:19.615Z,19.99
2023-04-19T09:48:16.751Z,19.79
2023-04-19T09:49:24.643Z,19.63
2023-04-19T09:50:21.905Z,19.64
2023-04-19T09:51:09.035Z,19.67
2023-04-19T09:52:02.079Z,19.53
2023-04-19T09:52:58.142Z,19.47
2023-04-19T09:53:54.185Z,19.54
2023-04-19T09:54:50.346Z,19.64
2023-04-19T09:55:57.648Z,19.82
2023-04-19T09:56:42.379Z,20.05
2023-04-19T09:57:39.617Z,20.14
2023-04-19T09:58:49.633Z,20.44
2023-04-19T09:59:33.605Z,20.55
2023-04-19T10:00:38.838Z,20.75
2023-04-19T10:01:27.875Z,20.98
2023-04-19T10:02:24.008Z,20.97
2023-04-19T10:03:21.123Z,21.20
2023-04-19T10:04:28.971Z,21.41
2023-04-19T10:06:14.138Z,21.41
2023-04-19T10:07:25.409Z,21.40
2023-04-19T10:08:01.393Z,21.56
2023-04-19T10:08:57.466Z,21.62
2023-04-19T10:09:55.054Z,21.88
2023-04-19T10:10:49.562Z,22.18
2023-04-19T10:11:48.139Z,22.43
2023-04-19T10:13:04.083Z,22.48
2023-04-19T10:13:38.837Z,22.64
2023-04-19T10:14:34.874Z,22.76
2023-04-19T10:15:42.882Z,22.91
2023-04-19T10:16:26.962Z,23.13
2023-04-19T10:17:23.239Z,23.37
2023-04-19T10:18:19.190Z,23.49
2023-04-19T10:19:17.406Z,23.71
2023-04-19T10:20:14.334Z,24.01
2023-04-19T10:21:10.835Z,24.16
2023-04-19T10:22:08.078Z,24.34
2023-04-19T10:23:04.094Z,24.26
2023-04-19T10:24:00.180Z,24.31
2023-04-19T10:24:56.158Z,24.56
2023-04-19T10:25:52.524Z,24.75
2023-04-19T10:26:48.766Z,24.81
2023-04-19T10:27:45.710Z,24.90
2023-04-19T10:28:41.799Z,25.22
2023-04-19T10:29:37.875Z,25.36
2023-04-19T10:30:35.015Z,25.37
2023-04-19T10:31:31.085Z,25.36
2023-04-19T10:32:27.229Z,25.64
2023-04-19T10:33:23.270Z,25.98
2023-04-19T10:34:19.565Z,26.12
2023-04-19T10:35:15.485Z,26.20
2023-04-19T10:36:12.801Z,26.33
2023-04-19T10:37:08.849Z,26.20
2023-04-19T10:38:05.947Z,26.33
2023-04-19T10:39:03.126Z,25.92
2023-04-19T10:39:59.198Z,25.82
2023-04-19T10:40:55.259Z,25.59
2023-04-19T10:41:51.360Z,25.70
2023-04-19T10:42:47.430Z,25.88
2023-04-19T10:43:43.575Z,26.08
2023-04-19T10:44:42.480Z,25.92
2023-04-19T10:45:38.672Z,25.82
2023-04-19T10:46:37.481Z,25.88
2023-04-19T10:47:34.582Z,25.61
2023-04-19T10:48:30.845Z,25.34
2023-04-19T10:49:27.201Z,25.01
2023-04-19T10:50:23.226Z,24.26
2023-04-19T10:51:19.571Z,24.03
2023-04-19T10:52:16.586Z,23.88
2023-04-19T10:53:14.238Z,24.00
2023-04-19T10:54:08.696Z,24.34
2023-04-19T10:55:05.655Z,24.60
2023-04-19T10:56:01.872Z,24.66
2023-04-19T10:56:57.983Z,24.63
2023-04-19T10:57:54.266Z,24.34
2023-04-19T10:58:50.181Z,24.33
2023-04-19T10:59:46.255Z,24.19
2023-04-19T11:00:42.562Z,23.91
2023-04-19T11:01:38.492Z,23.88
2023-04-19T11:02:34.638Z,24.00
2023-04-19T11:03:30.801Z,24.26
2023-04-19T11:04:26.749Z,24.13
2023-04-19T11:05:22.768Z,24.16
2023-04-19T11:06:19.182Z,24.11
2023-04-19T11:07:15.020Z,24.16
2023-04-19T11:08:11.168Z,24.16
2023-04-19T11:09:08.290Z,24.13
2023-04-19T11:10:04.327Z,24.01
2023-04-19T11:11:00.410Z,23.89
2023-04-19T11:11:56.499Z,24.13
2023-04-19T11:12:52.969Z,24.33
2023-04-19T11:13:48.689Z,24.34
2023-04-19T11:14:45.887Z,24.11
2023-04-19T11:15:42.182Z,24.11
2023-04-19T11:16:45.003Z,24.15
2023-04-19T11:17:35.647Z,24.16
2023-04-19T11:18:32.445Z,24.18
2023-04-19T11:19:28.596Z,24.10
2023-04-19T11:20:24.654Z,24.16
2023-04-19T11:21:20.810Z,23.89
2023-04-19T11:22:16.877Z,23.63
2023-04-19T11:23:12.929Z,23.89
2023-04-19T11:24:20.319Z,24.15
2023-04-19T11:25:16.490Z,24.22
2023-04-19T11:26:12.705Z,24.28
2023-04-19T11:27:08.618Z,24.26
2023-04-19T11:28:05.758Z,24.19
2023-04-19T11:29:02.348Z,24.16
2023-04-19T11:29:59.602Z,24.23
2023-04-19T11:30:55.883Z,24.29
2023-04-19T11:31:52.885Z,24.15
2023-04-19T11:32:49.525Z,23.92
2023-04-19T11:33:56.856Z,23.84
2023-04-19T11:34:52.998Z,23.92
2023-04-19T11:36:00.378Z,23.74
2023-04-19T11:36:56.436Z,23.67
2023-04-19T11:37:52.720Z,23.70
2023-04-19T11:38:49.573Z,23.60
2023-04-19T11:39:45.774Z,23.31
2023-04-19T11:40:42.894Z,23.44
2023-04-19T11:41:28.115Z,23.31
2023-04-19T11:42:24.279Z,23.10
2023-04-19T11:43:20.506Z,23.06
2023-04-19T11:44:17.714Z,23.03
2023-04-19T11:45:26.159Z,22.85
2023-04-19T11:46:11.183Z,22.43
2023-04-19T11:47:07.214Z,22.21
2023-04-19T11:48:03.284Z,22.27
2023-04-19T11:48:59.354Z,22.21
2023-04-19T11:49:55.367Z,22.25
2023-04-19T11:50:51.484Z,21.96
2023-04-19T11:51:48.377Z,21.82
2023-04-19T11:52:45.401Z,21.47
2023-04-19T11:53:41.861Z,21.26
2023-04-19T11:54:37.950Z,21.50
2023-04-19T11:55:35.255Z,21.37
2023-04-19T11:56:31.146Z,21.32
2023-04-19T11:57:27.387Z,21.58
2023-04-19T11:58:23.348Z,21.59
2023-04-19T11:59:19.410Z,21.62
2023-04-19T12:00:17.442Z,21.62
2023-04-19T12:01:13.551Z,21.56
2023-04-19T12:02:09.727Z,21.50
2023-04-19T12:03:07.177Z,21.40
2023-04-19T12:04:02.967Z,21.10
2023-04-19T12:04:48.324Z,21.10
2023-04-19T12:05:44.361Z,21.01
2023-04-19T12:06:42.226Z,21.01
2023-04-19T12:07:40.647Z,20.93
2023-04-19T12:08:37.834Z,20.93
2023-04-19T12:09:33.887Z,20.83
2023-04-19T12:10:30.766Z,20.82
2023-04-19T12:11:27.176Z,20.75
2023-04-19T12:12:24.178Z,20.75
2023-04-19T12:13:21.380Z,20.74
2023-04-19T12:14:17.567Z,20.55
2023-04-19T12:15:14.571Z,20.48
2023-04-19T12:16:10.869Z,20.48
2023-04-19T12:17:07.717Z,20.42
2023-04-19T12:18:03.885Z,20.39
2023-04-19T12:18:59.887Z,20.34
2023-04-19T12:19:57.151Z,20.33
2023-04-19T12:20:53.004Z,20.17
2023-04-19T12:21:51.077Z,20.22
2023-04-19T12:22:48.197Z,20.11
2023-04-19T12:23:44.268Z,20.02
2023-04-19T12:24:51.826Z,19.72
2023-04-19T12:25:51.670Z,19.44